createdAt,value
2018-07-12T00:00:49.996Z,97616.17
2018-07-12T00:03:20.199Z,97618.55
2018-07-12T00:05:49.553Z,97623.64
2018-07-12T00:08:17.679Z,97623.30
2018-07-12T00:10:48.177Z,97622.45
2018-07-12T00:13:17.860Z,97626.19
2018-07-12T00:15:47.343Z,97613.31
2018-07-12T00:18:15.391Z,97618.73
2018-07-12T00:20:46.036Z,97618.73
2018-07-12T00:23:13.901Z,97618.91
2018-07-12T00:25:42.529Z,97619.42
2018-07-12T00:28:11.080Z,97622.13
2018-07-12T00:30:39.772Z,97619.08
2018-07-12T00:33:08.901Z,97621.97
2018-07-12T00:35:38.100Z,97620.10
2018-07-12T00:38:09.887Z,97618.41
2018-07-12T00:40:37.993Z,97620.27
2018-07-12T00:43:07.023Z,97615.87
2018-07-12T00:45:35.196Z,97619.94
2018-07-12T00:48:03.454Z,97615.53
2018-07-12T00:50:31.405Z,97617.40
2018-07-12T00:53:00.432Z,97618.11
2018-07-12T00:55:29.515Z,97623.03
2018-07-12T00:57:57.524Z,97619.47
2018-07-12T01:00:25.595Z,97617.27
2018-07-12T01:02:57.594Z,97623.20
2018-07-12T01:05:25.524Z,97620.66
2018-07-12T01:07:53.252Z,97622.02
2018-07-12T01:12:58.890Z,97617.27
2018-07-12T01:15:26.904Z,97617.45
2018-07-12T01:17:56.573Z,97617.45
2018-07-12T01:20:24.598Z,97617.45
2018-07-12T01:22:53.429Z,97622.53
2018-07-12T01:25:21.312Z,97623.89
2018-07-12T01:27:50.403Z,97622.23
2018-07-12T01:30:18.153Z,97617.31
2018-07-12T01:32:46.020Z,97615.96
2018-07-12T01:35:13.884Z,97608.34
2018-07-12T01:37:41.808Z,97605.80
2018-07-12T01:40:09.890Z,97601.73
2018-07-12T01:42:37.885Z,97603.08
2018-07-12T01:45:05.650Z,97599.53
2018-07-12T01:47:33.508Z,97588.34
2018-07-12T01:50:01.288Z,97597.33
2018-07-12T01:52:30.496Z,97607.83
2018-07-12T01:54:58.353Z,97613.43
2018-07-12T01:57:26.422Z,97614.27
2018-07-12T01:59:55.263Z,97614.78
2018-07-12T02:02:23.373Z,97615.47
2018-07-12T02:04:51.041Z,97603.27
2018-07-12T02:07:19.371Z,97602.95
2018-07-12T02:09:47.444Z,97607.16
2018-07-12T02:12:16.082Z,97611.40
2018-07-12T02:14:44.136Z,97608.69
2018-07-12T02:17:12.375Z,97614.65
2018-07-12T02:19:40.190Z,97618.38
2018-07-12T02:22:08.567Z,97619.23
2018-07-12T02:24:36.628Z,97609.40
2018-07-12T02:27:05.465Z,97616.69
2018-07-12T02:29:34.318Z,97621.60
2018-07-12T02:32:03.420Z,97620.75
2018-07-12T02:34:32.285Z,97613.64
2018-07-12T02:37:00.064Z,97614.15
2018-07-12T02:39:29.556Z,97613.13
2018-07-12T02:41:57.629Z,97615.50
2018-07-12T02:44:25.755Z,97613.81
2018-07-12T02:46:53.815Z,97607.03
2018-07-12T02:49:22.059Z,97608.73
2018-07-12T02:51:49.789Z,97608.73
2018-07-12T02:54:17.702Z,97607.03
2018-07-12T02:56:46.626Z,97604.32
2018-07-12T02:59:15.096Z,97595.00
2018-07-12T03:01:43.125Z,97597.20
2018-07-12T03:04:11.442Z,97596.36
2018-07-12T03:06:39.648Z,97604.49
2018-07-12T03:09:08.869Z,97602.80
2018-07-12T03:11:37.065Z,97598.73
2018-07-12T03:14:05.468Z,97604.16
2018-07-12T03:16:33.335Z,97604.87
2018-07-12T03:19:01.524Z,97603.52
2018-07-12T03:21:29.476Z,97607.37
2018-07-12T03:23:57.433Z,97607.04
2018-07-12T03:26:25.369Z,97608.39
2018-07-12T03:28:53.484Z,97608.09
2018-07-12T03:31:21.352Z,97615.72
2018-07-12T03:33:49.076Z,97612.16
2018-07-12T03:36:17.751Z,97611.31
2018-07-12T03:38:45.973Z,97607.75
2018-07-12T03:41:16.881Z,97608.26
2018-07-12T03:43:46.186Z,97605.21
2018-07-12T03:46:14.689Z,97617.23
2018-07-12T03:48:42.965Z,97611.48
2018-07-12T03:51:10.915Z,97611.14
2018-07-12T03:53:39.003Z,97607.08
2018-07-12T03:56:07.089Z,97605.72
2018-07-12T03:58:34.994Z,97608.44
2018-07-12T04:01:02.995Z,97608.94
2018-07-12T04:03:30.933Z,97603.52
2018-07-12T04:05:59.305Z,97602.67
2018-07-12T04:08:27.176Z,97610.30
2018-07-12T04:10:55.398Z,97610.30
2018-07-12T04:13:24.249Z,97611.83
2018-07-12T04:15:51.994Z,97609.95
2018-07-12T04:18:20.839Z,97617.25
2018-07-12T04:20:48.599Z,97626.22
2018-07-12T04:23:16.661Z,97622.16
2018-07-12T04:25:44.802Z,97624.87
2018-07-12T04:28:13.393Z,97626.22
2018-07-12T04:30:41.184Z,97626.73
2018-07-12T04:33:10.360Z,97631.64
2018-07-12T04:38:02.092Z,97630.80
2018-07-12T04:40:30.294Z,97625.38
2018-07-12T04:42:58.137Z,97630.29
2018-07-12T04:45:25.980Z,97625.89
2018-07-12T04:47:54.905Z,97637.91
2018-07-12T04:50:23.107Z,97631.30
2018-07-12T04:52:52.602Z,97636.22
2018-07-12T04:55:20.368Z,97633.00
2018-07-12T04:57:49.971Z,97628.59
2018-07-12T05:00:18.516Z,97634.02
2018-07-12T05:02:46.593Z,97630.80
2018-07-12T05:05:14.316Z,97632.66
2018-07-12T05:07:43.465Z,97632.16
2018-07-12T05:10:12.527Z,97640.28
2018-07-12T05:12:40.608Z,97637.06
2018-07-12T05:15:08.769Z,97635.20
2018-07-12T05:17:36.847Z,97635.71
2018-07-12T05:20:05.881Z,97648.25
2018-07-12T05:22:33.638Z,97643.00
2018-07-12T05:25:03.477Z,97641.80
2018-07-12T05:27:31.719Z,97650.41
2018-07-12T05:29:59.650Z,97650.58
2018-07-12T05:35:03.015Z,97658.38
2018-07-12T05:37:34.484Z,97655.66
2018-07-12T05:40:04.709Z,97659.39
2018-07-12T05:42:35.789Z,97656.68
2018-07-12T05:45:06.374Z,97647.36
2018-07-12T05:47:37.342Z,97653.13
2018-07-12T05:50:08.056Z,97646.17
2018-07-12T05:52:38.377Z,97655.83
2018-07-12T05:55:08.681Z,97658.38
2018-07-12T05:57:37.987Z,97657.66
2018-07-12T06:00:07.800Z,97662.91
2018-07-12T06:08:40.390Z,97674.30
2018-07-12T06:11:09.739Z,97688.03
2018-07-12T06:13:40.786Z,97693.63
2018-07-12T06:16:13.546Z,97689.55
2018-07-12T06:18:44.744Z,97694.13
2018-07-12T06:21:17.147Z,97696.50
2018-07-12T06:23:48.564Z,97701.41
2018-07-12T06:26:19.284Z,97699.37
2018-07-12T06:28:48.891Z,97697.52
2018-07-12T06:31:19.615Z,97705.48
2018-07-12T06:33:50.541Z,97703.28
2018-07-12T06:36:22.426Z,97705.28
2018-07-12T06:38:54.236Z,97706.47
2018-07-12T06:41:28.374Z,97706.97
2018-07-12T06:43:59.195Z,97703.92
2018-07-12T06:46:29.783Z,97709.86
2018-07-12T06:49:06.322Z,97714.27
2018-07-12T06:51:36.127Z,97717.31
2018-07-12T06:54:09.547Z,97719.14
2018-07-12T06:56:40.706Z,97721.00
2018-07-12T06:59:12.375Z,97722.36
2018-07-12T07:01:43.712Z,97721.34
2018-07-12T07:04:21.540Z,97731.34
2018-07-12T07:06:56.876Z,97724.73
2018-07-12T07:09:27.615Z,97727.78
2018-07-12T07:11:58.879Z,97735.55
2018-07-12T07:14:30.199Z,97734.53
2018-07-12T07:17:08.242Z,97734.87
2018-07-12T07:19:38.671Z,97737.61
2018-07-12T07:22:10.597Z,97732.83
2018-07-12T07:24:41.104Z,97738.42
2018-07-12T07:27:11.705Z,97738.09
2018-07-12T07:29:41.712Z,97734.52
2018-07-12T07:32:14.237Z,97733.84
2018-07-12T07:34:44.801Z,97732.66
2018-07-12T07:37:16.576Z,97729.61
2018-07-12T07:39:54.628Z,97734.19
2018-07-12T07:42:25.037Z,97740.80
2018-07-12T07:44:55.470Z,97743.17
2018-07-12T07:47:26.808Z,97749.61
2018-07-12T07:49:57.637Z,97749.10
2018-07-12T07:52:36.109Z,97750.42
2018-07-12T07:55:08.179Z,97759.23
2018-07-12T07:57:47.634Z,97760.26
2018-07-12T08:00:23.861Z,97762.33
2018-07-12T08:02:55.327Z,97760.26
2018-07-12T08:05:30.897Z,97761.95
2018-07-12T08:08:02.058Z,97768.56
2018-07-12T08:10:32.581Z,97773.31
2018-07-12T08:13:02.580Z,97769.71
2018-07-12T08:15:38.413Z,97772.25
2018-07-12T08:18:09.635Z,97777.00
2018-07-12T08:20:44.292Z,97776.16
2018-07-12T08:23:16.220Z,97775.30
2018-07-12T08:25:46.573Z,97773.77
2018-07-12T08:28:29.699Z,97774.42
2018-07-12T08:31:06.213Z,97778.31
2018-07-12T08:33:48.774Z,97780.19
2018-07-12T08:36:24.061Z,97777.13
2018-07-12T08:41:38.017Z,97779.34
2018-07-12T08:44:07.399Z,97777.47
2018-07-12T08:46:39.233Z,97771.53
2018-07-12T08:49:10.431Z,97780.01
2018-07-12T08:51:48.338Z,97775.22
2018-07-12T08:54:20.806Z,97770.68
2018-07-12T08:56:50.292Z,97771.66
2018-07-12T08:59:21.889Z,97767.97
2018-07-12T09:01:52.557Z,97776.95
2018-07-12T09:04:21.924Z,97776.44
2018-07-12T09:06:53.366Z,97775.26
2018-07-12T09:09:22.807Z,97778.82
2018-07-12T09:11:52.342Z,97785.61
2018-07-12T09:14:26.240Z,97781.20
2018-07-12T09:16:56.596Z,97781.50
2018-07-12T09:19:28.966Z,97785.91
2018-07-12T09:21:59.565Z,97781.83
2018-07-12T09:24:30.631Z,97784.67
2018-07-12T09:27:02.598Z,97781.11
2018-07-12T09:29:32.568Z,97783.47
2018-07-12T09:32:07.137Z,97782.46
2018-07-12T09:34:38.288Z,97786.88
2018-07-12T09:37:07.778Z,97795.02
2018-07-12T09:39:38.620Z,97790.10
2018-07-12T09:42:09.201Z,97790.78
2018-07-12T09:44:39.996Z,97789.80
2018-07-12T09:47:09.607Z,97796.25
2018-07-12T09:49:40.769Z,97796.38
2018-07-12T09:52:17.141Z,97798.41
2018-07-12T09:54:59.410Z,97795.69
2018-07-12T09:57:41.289Z,97789.24
2018-07-12T10:00:11.230Z,97793.65
2018-07-12T10:02:45.424Z,97796.37
2018-07-12T10:05:20.726Z,97804.47
2018-07-12T10:07:51.171Z,97800.39
2018-07-12T10:10:24.688Z,97801.88
2018-07-12T10:12:59.728Z,97794.75
2018-07-12T10:15:35.504Z,97793.10
2018-07-12T10:18:10.394Z,97793.27
2018-07-12T10:20:41.320Z,97801.76
2018-07-12T10:23:14.305Z,97801.58
2018-07-12T10:25:49.579Z,97807.18
2018-07-12T10:28:20.748Z,97802.05
2018-07-12T10:30:53.459Z,97801.20
2018-07-12T10:33:26.218Z,97799.16
2018-07-12T10:35:56.001Z,97800.00
2018-07-12T10:38:25.532Z,97799.61
2018-07-12T10:41:00.000Z,97801.99
2018-07-12T10:43:30.786Z,97801.48
2018-07-12T10:46:02.830Z,97800.63
2018-07-12T10:48:32.585Z,97801.31
2018-07-12T10:51:08.363Z,97804.03
2018-07-12T10:53:39.971Z,97804.70
2018-07-12T10:56:09.989Z,97805.37
2018-07-12T10:58:41.494Z,97804.02
2018-07-12T11:01:16.450Z,97807.92
2018-07-12T11:03:48.098Z,97802.16
2018-07-12T11:06:18.464Z,97808.39
2018-07-12T11:11:25.035Z,97807.35
2018-07-12T11:13:56.100Z,97808.02
2018-07-12T11:16:28.116Z,97814.30
2018-07-12T11:18:59.358Z,97812.42
2018-07-12T11:21:31.128Z,97814.13
2018-07-12T11:24:02.398Z,97818.41
2018-07-12T11:26:32.780Z,97815.19
2018-07-12T11:29:05.377Z,97810.06
2018-07-12T11:31:38.514Z,97814.80
2018-07-12T11:34:08.090Z,97810.03
2018-07-12T11:36:40.268Z,97813.04
2018-07-12T11:39:12.147Z,97812.52
2018-07-12T11:41:41.473Z,97804.39
2018-07-12T11:44:13.415Z,97810.03
2018-07-12T11:46:45.206Z,97811.18
2018-07-12T11:49:19.781Z,97808.45
2018-07-12T11:51:50.611Z,97801.99
2018-07-12T11:54:21.603Z,97800.83
2018-07-12T11:56:52.094Z,97800.52
2018-07-12T11:59:23.573Z,97803.23
2018-07-12T12:01:58.308Z,97800.52
2018-07-12T12:04:28.558Z,97806.75
2018-07-12T12:07:01.236Z,97805.23
2018-07-12T12:09:31.105Z,97807.95
2018-07-12T12:12:00.377Z,97808.29
2018-07-12T12:14:31.978Z,97800.81
2018-07-12T12:17:01.475Z,97794.02
2018-07-12T12:19:32.932Z,97799.80
2018-07-12T12:22:08.267Z,97790.11
2018-07-12T12:24:40.809Z,97796.73
2018-07-12T12:27:11.297Z,97788.92
2018-07-12T12:29:41.625Z,97790.27
2018-07-12T12:32:11.463Z,97782.97
2018-07-12T12:34:41.777Z,97784.51
2018-07-12T12:37:16.133Z,97782.80
2018-07-12T12:39:45.428Z,97780.41
2018-07-12T12:42:16.783Z,97786.87
2018-07-12T12:44:49.364Z,97783.15
2018-07-12T12:47:23.836Z,97776.17
2018-07-12T12:49:54.347Z,97779.34
2018-07-12T12:52:23.895Z,97782.34
2018-07-12T12:54:53.544Z,97773.91
2018-07-12T12:57:25.264Z,97772.55
2018-07-12T12:59:59.428Z,97771.36
2018-07-12T13:02:35.425Z,97773.92
2018-07-12T13:05:09.307Z,97777.53
2018-07-12T13:07:44.277Z,97779.85
2018-07-12T13:10:18.086Z,97773.73
2018-07-12T13:12:47.325Z,97774.33
2018-07-12T13:15:18.416Z,97771.45
2018-07-12T13:17:49.413Z,97769.91
2018-07-12T13:20:20.229Z,97768.22
2018-07-12T13:22:53.926Z,97770.94
2018-07-12T13:25:24.744Z,97765.32
2018-07-12T13:27:57.313Z,97765.83
2018-07-12T13:30:28.109Z,97762.94
2018-07-12T13:33:02.782Z,97762.88
2018-07-12T13:35:35.857Z,97764.23
2018-07-12T13:38:07.994Z,97760.32
2018-07-12T13:40:37.361Z,97764.06
2018-07-12T13:43:07.592Z,97764.73
2018-07-12T13:45:44.201Z,97759.98
2018-07-12T13:48:13.936Z,97761.86
2018-07-12T13:50:43.391Z,97762.88
2018-07-12T13:53:14.640Z,97762.29
2018-07-12T13:55:46.315Z,97764.62
2018-07-12T13:58:15.513Z,97758.27
2018-07-12T14:00:45.238Z,97758.39
2018-07-12T14:03:14.618Z,97764.83
2018-07-12T14:05:44.702Z,97756.01
2018-07-12T14:08:16.592Z,97751.83
2018-07-12T14:11:03.470Z,97758.86
2018-07-12T14:16:03.537Z,97752.91
2018-07-12T14:18:34.932Z,97749.62
2018-07-12T14:21:09.430Z,97745.60
2018-07-12T14:23:42.278Z,97752.19
2018-07-12T14:26:12.594Z,97749.45
2018-07-12T14:28:45.261Z,97748.27
2018-07-12T14:31:16.684Z,97751.67
2018-07-12T14:33:47.466Z,97746.42
2018-07-12T14:36:18.935Z,97745.55
2018-07-12T14:38:49.491Z,97745.70
2018-07-12T14:41:20.182Z,97741.80
2018-07-12T14:43:51.957Z,97745.80
2018-07-12T14:46:21.664Z,97736.46
2018-07-12T14:48:51.564Z,97735.77
2018-07-12T14:51:23.366Z,97738.06
2018-07-12T14:53:53.712Z,97731.09
2018-07-12T14:56:24.382Z,97736.37
2018-07-12T14:58:53.721Z,97731.59
2018-07-12T15:01:24.880Z,97737.06
2018-07-12T15:03:55.611Z,97731.11
2018-07-12T15:06:27.402Z,97731.63
2018-07-12T15:09:00.313Z,97729.84
2018-07-12T15:11:30.677Z,97728.44
2018-07-12T15:14:01.252Z,97727.77
2018-07-12T15:16:31.433Z,97722.84
2018-07-12T15:19:05.508Z,97723.78
2018-07-12T15:21:36.391Z,97725.72
2018-07-12T15:24:07.556Z,97721.94
2018-07-12T15:26:37.358Z,97729.13
2018-07-12T15:30:20.847Z,97722.78
2018-07-12T15:32:52.942Z,97726.34
2018-07-12T15:35:23.013Z,97722.18
2018-07-12T15:37:52.584Z,97724.20
2018-07-12T15:40:25.481Z,97722.75
2018-07-12T15:42:57.993Z,97723.94
2018-07-12T15:45:29.914Z,97721.24
2018-07-12T15:47:59.958Z,97721.30
2018-07-12T15:50:29.947Z,97724.98
2018-07-12T15:53:00.828Z,97725.56
2018-07-12T15:55:38.157Z,97726.77
2018-07-12T15:58:10.201Z,97731.52
2018-07-12T16:00:46.491Z,97721.84
2018-07-12T16:03:23.128Z,97721.66
2018-07-12T16:05:55.662Z,97724.41
2018-07-12T16:08:30.081Z,97724.05
2018-07-12T16:10:59.884Z,97724.05
2018-07-12T16:13:31.059Z,97721.48
2018-07-12T16:16:01.423Z,97719.73
2018-07-12T16:18:33.090Z,97719.82
2018-07-12T16:21:06.321Z,97724.41
2018-07-12T16:23:37.284Z,97724.63
2018-07-12T16:26:11.474Z,97730.91
2018-07-12T16:28:41.971Z,97725.31
2018-07-12T16:31:15.591Z,97722.08
2018-07-12T16:33:45.227Z,97729.23
2018-07-12T16:36:15.398Z,97721.93
2018-07-12T16:38:48.439Z,97723.63
2018-07-12T16:41:19.352Z,97719.55
2018-07-12T16:43:50.002Z,97721.75
2018-07-12T16:46:21.307Z,97712.08
2018-07-12T16:48:51.566Z,97718.72
2018-07-12T16:51:21.557Z,97717.58
2018-07-12T16:53:56.051Z,97715.31
2018-07-12T16:56:25.825Z,97726.52
2018-07-12T16:58:58.793Z,97726.00
2018-07-12T17:01:28.573Z,97719.45
2018-07-12T17:03:58.955Z,97719.23
2018-07-12T17:06:29.042Z,97724.67
2018-07-12T17:08:59.217Z,97723.80
2018-07-12T17:11:30.745Z,97732.29
2018-07-12T17:14:00.500Z,97735.28
2018-07-12T17:16:33.904Z,97729.84
2018-07-12T17:19:05.148Z,97735.59
2018-07-12T17:21:35.670Z,97734.14
2018-07-12T17:24:07.785Z,97729.07
2018-07-12T17:26:38.674Z,97735.02
2018-07-12T17:29:09.364Z,97737.41
2018-07-12T17:31:40.479Z,97734.69
2018-07-12T17:34:11.282Z,97735.92
2018-07-12T17:36:41.132Z,97736.28
2018-07-12T17:39:11.874Z,97736.62
2018-07-12T17:41:43.067Z,97737.16
2018-07-12T17:44:16.348Z,97740.36
2018-07-12T17:46:49.216Z,97741.03
2018-07-12T17:49:18.418Z,97747.98
2018-07-12T17:51:59.560Z,97755.92
2018-07-12T17:54:29.451Z,97753.20
2018-07-12T17:57:00.441Z,97754.88
2018-07-12T17:59:32.200Z,97751.13
2018-07-12T18:02:03.243Z,97750.97
2018-07-12T18:04:38.402Z,97749.10
2018-07-12T18:07:12.112Z,97755.23
2018-07-12T18:09:43.097Z,97754.90
2018-07-12T18:12:16.990Z,97755.41
2018-07-12T18:14:51.814Z,97761.06
2018-07-12T18:17:24.284Z,97764.80
2018-07-12T18:20:01.044Z,97763.62
2018-07-12T18:22:31.746Z,97764.31
2018-07-12T18:25:12.414Z,97772.47
2018-07-12T18:27:42.133Z,97766.70
2018-07-12T18:30:13.308Z,97769.09
2018-07-12T18:32:47.200Z,97774.52
2018-07-12T18:35:19.855Z,97776.22
2018-07-12T18:37:57.196Z,97773.67
2018-07-12T18:40:28.242Z,97771.98
2018-07-12T18:43:03.703Z,97777.42
2018-07-12T18:45:40.042Z,97773.86
2018-07-12T18:48:12.783Z,97772.70
2018-07-12T18:50:42.781Z,97777.81
2018-07-12T18:53:21.078Z,97788.69
2018-07-12T18:55:50.342Z,97785.30
2018-07-12T18:58:19.956Z,97789.55
2018-07-12T19:00:50.544Z,97785.14
2018-07-12T19:03:24.719Z,97797.71
2018-07-12T19:05:55.408Z,97800.61
2018-07-12T19:08:27.615Z,97808.77
2018-07-12T19:11:04.138Z,97802.14
2018-07-12T19:13:39.164Z,97808.94
2018-07-12T19:16:08.573Z,97800.14
2018-07-12T19:18:39.353Z,97800.66
2018-07-12T19:21:09.511Z,97806.42
2018-07-12T19:23:38.989Z,97799.81
2018-07-12T19:26:09.221Z,97810.17
2018-07-12T19:28:39.281Z,97807.11
2018-07-12T19:31:11.521Z,97810.86
2018-07-12T19:33:42.587Z,97809.50
2018-07-12T19:36:14.438Z,97812.22
2018-07-12T19:38:45.725Z,97806.45
2018-07-12T19:41:15.241Z,97819.19
2018-07-12T19:43:46.265Z,97809.85
2018-07-12T19:46:17.245Z,97815.28
2018-07-12T19:48:48.591Z,97828.03
2018-07-12T19:51:20.273Z,97819.03
2018-07-12T19:53:53.698Z,97822.80
2018-07-12T19:56:26.254Z,97820.27
2018-07-12T19:58:57.933Z,97825.25
2018-07-12T20:01:49.779Z,97832.34
2018-07-12T20:07:32.036Z,97838.00
2018-07-12T20:10:01.756Z,97848.53
2018-07-12T20:12:33.362Z,97851.42
2018-07-12T20:15:06.645Z,97847.22
2018-07-12T20:17:37.021Z,97847.23
2018-07-12T20:20:07.115Z,97839.25
2018-07-12T20:22:38.260Z,97841.12
2018-07-12T20:25:10.260Z,97843.00
2018-07-12T20:27:41.901Z,97842.50
2018-07-12T20:30:12.705Z,97846.06
2018-07-12T20:32:42.694Z,97850.81
2018-07-12T20:35:13.412Z,97849.13
2018-07-12T20:37:44.356Z,97850.66
2018-07-12T20:40:13.732Z,97852.86
2018-07-12T20:42:44.617Z,97852.19
2018-07-12T20:45:14.840Z,97852.70
2018-07-12T20:47:44.227Z,97854.05
2018-07-12T20:50:17.438Z,97856.64
2018-07-12T20:52:49.016Z,97854.61
2018-07-12T20:55:19.120Z,97856.30
2018-07-12T20:57:49.901Z,97858.34
2018-07-12T21:00:21.236Z,97858.52
2018-07-12T21:02:51.996Z,97855.97
2018-07-12T21:05:21.693Z,97860.05
2018-07-12T21:07:51.344Z,97861.58
2018-07-12T21:10:23.372Z,97862.29
2018-07-12T21:12:56.075Z,97870.95
2018-07-12T21:15:26.010Z,97866.36
2018-07-12T21:17:56.514Z,97871.28
2018-07-12T21:20:33.287Z,97873.16
2018-07-12T21:23:04.720Z,97870.95
2018-07-12T21:25:35.801Z,97871.29
2018-07-12T21:28:05.343Z,97871.97
2018-07-12T21:30:37.851Z,97871.97
2018-07-12T21:33:08.351Z,97874.55
2018-07-12T21:35:38.560Z,97875.70
2018-07-12T21:38:12.696Z,97872.69
2018-07-12T21:40:42.340Z,97874.73
2018-07-12T21:43:12.520Z,97872.90
2018-07-12T21:45:45.891Z,97879.34
2018-07-12T21:48:20.456Z,97879.86
2018-07-12T21:50:52.412Z,97881.05
2018-07-12T21:53:24.679Z,97875.95
2018-07-12T21:55:57.288Z,97873.61
2018-07-12T21:58:28.342Z,97874.80
2018-07-12T22:00:58.567Z,97879.89
2018-07-12T22:03:30.286Z,97881.42
2018-07-12T22:06:06.296Z,97880.23
2018-07-12T22:08:39.683Z,97882.30
2018-07-12T22:11:11.365Z,97888.23
2018-07-12T22:13:41.275Z,97884.33
2018-07-12T22:16:13.334Z,97883.14
2018-07-12T22:18:42.736Z,97880.09
2018-07-12T22:21:12.032Z,97885.69
2018-07-12T22:23:43.954Z,97886.20
2018-07-12T22:26:14.213Z,97880.77
2018-07-12T22:28:44.384Z,97882.33
2018-07-12T22:31:18.674Z,97880.63
2018-07-12T22:33:49.281Z,97879.28
2018-07-12T22:36:20.607Z,97878.94
2018-07-12T22:38:50.949Z,97875.03
2018-07-12T22:41:20.478Z,97876.39
2018-07-12T22:43:51.857Z,97875.55
2018-07-12T22:46:22.727Z,97881.14
2018-07-12T22:48:52.477Z,97888.43
2018-07-12T22:51:24.436Z,97885.03
2018-07-12T22:54:01.894Z,97887.75
2018-07-12T22:56:36.004Z,97886.59
2018-07-12T22:59:05.416Z,97887.27
2018-07-12T23:01:37.033Z,97886.08
2018-07-12T23:04:06.498Z,97891.00
2018-07-12T23:06:37.482Z,97891.67
2018-07-12T23:09:08.127Z,97887.77
2018-07-12T23:11:37.512Z,97892.86
2018-07-12T23:14:07.720Z,97892.20
2018-07-12T23:16:37.373Z,97898.14
2018-07-12T23:19:06.802Z,97885.77
2018-07-12T23:21:38.938Z,97893.05
2018-07-12T23:24:09.076Z,97890.51
2018-07-12T23:26:38.732Z,97892.88
2018-07-12T23:29:12.615Z,97893.59
2018-07-12T23:31:42.233Z,97886.43
2018-07-12T23:34:11.504Z,97887.45
2018-07-12T23:36:41.093Z,97887.11
2018-07-12T23:39:10.715Z,97889.48
2018-07-12T23:41:41.198Z,97893.71
2018-07-12T23:44:10.812Z,97898.29
2018-07-12T23:46:41.328Z,97895.23
2018-07-12T23:49:11.143Z,97891.33
2018-07-12T23:51:41.866Z,97892.89
2018-07-12T23:54:12.454Z,97890.17
2018-07-12T23:56:41.664Z,97890.34
2018-07-12T23:59:11.896Z,97885.77
